RPLL/MNL METAR and TAF weather

Enter ICAO airport designator
Station Type Date Time Source
RPLL METAR 2019/06/17 04:00 UTC NOAA

RPLL 170400Z 10012KT 9999 FEW022TCU FEW023 34/25 Q1010 NOSIG RMK A2983 TCU NNE/SW


Station Type Date Time Source
RPLL Decoded METAR 2019/06/17 04:00 UTC NOAA

Ninoy Aquino Inter-National Airport, Philippines (RPLL) 14-31N 121-00E 15M
Jun 17, 2019 - 12:00 AM EDT / 2019.06.17 0400 UTC
Wind: from the E (100 degrees) at 14 MPH (12 KT):0
Visibility: greater than 7 mile(s):0
Sky conditions: mostly clear
Weather: Towering cumulus clouds observed
Temperature: 93 F (34 C)
Heat index: 106.7 F (41.5 C):1
Dew Point: 77 F (25 C)
Relative Humidity: 59%
Pressure (altimeter): 29.83 in. Hg (1010 hPa)
ob: RPLL 170400Z 10012KT 9999 FEW022TCU FEW023 34/25 Q1010 NOSIG RMK A2983 TCU NNE/SW
cycle: 4

Station Type Date Time Source
RPLL TAF 2019/06/16 18:03 UTC NOAA

TAF RPLL 161700Z 1618/1724 16006KT 9999 FEW023 SCT300 TX35/1706Z TN28/1621Z
TEMPO 1618/1624 12003KT FEW020 SCT090
TEMPO 1706/1712 14010KT 9000 -TSRA FEW022CB SCT023 BKN100

Example: see airport list